Time;durP1;ratioP1;P1;durP2;ratioP2;P2;SDS_P1;SDS_P2;PMS_P1;PMS_P2;Temp;Humidity;BMP_temperature;BMP_pressure;BME280_temperature;BME280_humidity;BME280_pressure;Samples;Min_cycle;Max_cycle;Signal;HPM_P1;HPM_P2
2023/05/17 00:00:12;;;;;;;;;5.33;4.00;;;;;;;;4951323;28;45459;-76
2023/05/17 00:02:38;;;;;;;;;7.00;5.00;;;;;;;;4951215;28;45547;-77
2023/05/17 00:05:03;;;;;;;;;6.33;5.00;;;;;;;;4949722;28;47091;-77
2023/05/17 00:07:28;;;;;;;;;6.67;6.33;;;;;;;;4951521;28;45463;-75
2023/05/17 00:09:54;;;;;;;;;3.33;3.33;;;;;;;;4951605;28;45479;-76
2023/05/17 00:12:19;;;;;;;;;6.33;6.33;;;;;;;;4949138;28;46574;-77
2023/05/17 00:14:44;;;;;;;;;6.00;6.00;;;;;;;;4949963;28;46045;-76
2023/05/17 00:17:09;;;;;;;;;5.67;5.67;;;;;;;;4947193;28;45742;-75
2023/05/17 00:19:35;;;;;;;;;5.67;4.33;;;;;;;;4950226;28;45832;-76
2023/05/17 00:22:00;;;;;;;;;5.00;5.00;;;;;;;;4949993;28;45615;-77
2023/05/17 00:24:26;;;;;;;;;6.00;6.00;;;;;;;;4950647;28;45876;-77
2023/05/17 00:26:51;;;;;;;;;5.33;5.00;;;;;;;;4951461;28;45415;-77
2023/05/17 00:29:16;;;;;;;;;9.00;6.00;;;;;;;;4951259;28;45764;-76
2023/05/17 00:31:41;;;;;;;;;8.33;6.00;;;;;;;;4951290;28;46081;-76
2023/05/17 00:34:07;;;;;;;;;8.67;6.00;;;;;;;;4954480;28;45413;-76
2023/05/17 00:36:32;;;;;;;;;9.00;5.67;;;;;;;;4946547;28;45540;-77
2023/05/17 00:38:57;;;;;;;;;8.67;7.00;;;;;;;;4954397;28;45525;-77
2023/05/17 00:41:22;;;;;;;;;9.67;7.00;;;;;;;;4954082;28;46202;-77
2023/05/17 00:43:47;;;;;;;;;7.33;6.00;;;;;;;;4951617;28;46781;-76
2023/05/17 00:46:13;;;;;;;;;6.67;6.67;;;;;;;;4952655;28;45453;-77
2023/05/17 00:48:38;;;;;;;;;5.33;5.33;;;;;;;;4952692;28;45668;-76
2023/05/17 00:51:04;;;;;;;;;6.67;5.33;;;;;;;;4952601;28;45493;-80
2023/05/17 00:53:29;;;;;;;;;4.67;4.67;;;;;;;;4945663;28;46636;-78
2023/05/17 00:55:54;;;;;;;;;6.67;6.00;;;;;;;;4954440;28;45920;-78
2023/05/17 00:58:20;;;;;;;;;7.00;5.33;;;;;;;;4954116;28;45639;-77
2023/05/17 01:00:46;;;;;;;;;7.67;6.00;;;;;;;;4954195;28;45724;-79
2023/05/17 01:03:11;;;;;;;;;8.00;7.00;;;;;;;;4953604;28;45851;-79
2023/05/17 01:05:36;;;;;;;;;6.00;5.33;;;;;;;;4954160;28;46114;-79
2023/05/17 01:08:01;;;;;;;;;7.67;7.00;;;;;;;;4953166;28;45380;-80
2023/05/17 01:10:30;;;;;;;;;8.00;8.00;;;;;;;;4964747;28;46924;-78
2023/05/17 01:13:05;;;;;;;;;6.33;6.33;;;;;;;;4968283;28;45602;-79
2023/05/17 01:15:35;;;;;;;;;5.00;4.67;;;;;;;;4958448;28;45770;-79
2023/05/17 01:18:00;;;;;;;;;7.33;6.33;;;;;;;;4952814;28;45790;-78
2023/05/17 01:20:28;;;;;;;;;7.00;7.00;;;;;;;;4949778;28;45722;-79
2023/05/17 01:22:59;;;;;;;;;6.33;4.33;;;;;;;;4943912;28;45543;-79
2023/05/17 01:25:33;;;;;;;;;10.00;10.00;;;;;;;;4953574;28;45802;-79
2023/05/17 01:28:00;;;;;;;;;7.67;6.67;;;;;;;;4963291;28;45508;-77
2023/05/17 01:30:25;;;;;;;;;9.33;9.00;;;;;;;;4952646;28;45776;-78
2023/05/17 01:32:54;;;;;;;;;10.33;9.33;;;;;;;;4952553;28;45620;-77
2023/05/17 01:35:19;;;;;;;;;10.33;6.67;;;;;;;;4951267;28;45641;-77
2023/05/17 01:37:45;;;;;;;;;6.67;6.67;;;;;;;;4948924;28;45714;-77
2023/05/17 01:40:10;;;;;;;;;8.33;7.00;;;;;;;;4950649;28;45503;-78
2023/05/17 01:42:39;;;;;;;;;10.33;5.33;;;;;;;;4953744;28;45973;-78
2023/05/17 01:45:23;;;;;;;;;10.00;7.33;;;;;;;;4963059;28;45760;-78
2023/05/17 01:48:08;;;;;;;;;11.00;9.67;;;;;;;;4947292;28;45509;-77
2023/05/17 01:50:35;;;;;;;;;7.67;6.33;;;;;;;;4946253;28;45898;-77
2023/05/17 01:53:08;;;;;;;;;10.67;9.67;;;;;;;;4942344;28;45650;-77
2023/05/17 01:55:42;;;;;;;;;10.67;9.00;;;;;;;;4944309;28;45907;-77
2023/05/17 01:58:09;;;;;;;;;12.33;9.67;;;;;;;;4941336;28;45803;-78
2023/05/17 02:00:35;;;;;;;;;12.67;10.00;;;;;;;;4952195;28;45774;-78
2023/05/17 02:03:00;;;;;;;;;13.67;11.00;;;;;;;;4949751;28;47452;-78
2023/05/17 02:05:25;;;;;;;;;14.00;10.67;;;;;;;;4948765;28;45910;-77
2023/05/17 02:07:50;;;;;;;;;12.67;11.33;;;;;;;;4952511;28;45604;-76
2023/05/17 02:10:16;;;;;;;;;14.00;14.00;;;;;;;;4949190;28;46254;-77
2023/05/17 02:12:41;;;;;;;;;13.33;12.33;;;;;;;;4949906;28;46352;-76
2023/05/17 02:15:09;;;;;;;;;12.00;10.00;;;;;;;;4950014;28;46022;-77
2023/05/17 02:17:35;;;;;;;;;11.00;11.00;;;;;;;;4960141;28;45817;-76
2023/05/17 02:20:00;;;;;;;;;8.33;8.33;;;;;;;;4955409;28;46480;-78
2023/05/17 02:22:25;;;;;;;;;9.00;7.67;;;;;;;;4951878;28;46050;-77
2023/05/17 02:24:50;;;;;;;;;11.00;8.33;;;;;;;;4951284;28;45422;-77
2023/05/17 02:27:16;;;;;;;;;12.00;12.00;;;;;;;;4953446;28;45439;-77
2023/05/17 02:29:41;;;;;;;;;13.00;11.00;;;;;;;;4952305;28;45562;-77
2023/05/17 02:32:06;;;;;;;;;14.67;12.67;;;;;;;;4957120;28;45828;-78
2023/05/17 02:34:31;;;;;;;;;11.67;10.00;;;;;;;;4953067;28;45738;-77
2023/05/17 02:36:57;;;;;;;;;12.67;12.33;;;;;;;;4952974;28;45739;-77
2023/05/17 02:39:22;;;;;;;;;15.00;12.00;;;;;;;;4952092;28;45675;-77
2023/05/17 02:41:47;;;;;;;;;11.67;10.33;;;;;;;;4956732;28;47043;-78
2023/05/17 02:44:13;;;;;;;;;14.00;11.33;;;;;;;;4954424;28;45745;-77
2023/05/17 02:46:38;;;;;;;;;16.00;13.00;;;;;;;;4952977;28;45820;-76
2023/05/17 02:49:03;;;;;;;;;14.00;10.33;;;;;;;;4954539;28;45909;-77
2023/05/17 02:51:28;;;;;;;;;15.67;14.00;;;;;;;;4952333;28;45348;-77
2023/05/17 02:53:53;;;;;;;;;14.00;11.00;;;;;;;;4947663;28;45770;-78
2023/05/17 02:56:19;;;;;;;;;16.33;14.33;;;;;;;;4952005;28;45519;-77
2023/05/17 02:58:44;;;;;;;;;16.33;13.67;;;;;;;;4950082;28;46567;-80
2023/05/17 03:01:10;;;;;;;;;14.67;12.33;;;;;;;;4950622;28;47361;-76
2023/05/17 03:03:35;;;;;;;;;16.33;14.67;;;;;;;;4952105;28;45888;-77
2023/05/17 03:06:01;;;;;;;;;17.67;12.67;;;;;;;;4949995;28;45703;-77
2023/05/17 03:08:26;;;;;;;;;15.67;14.67;;;;;;;;4951826;28;45405;-77
2023/05/17 03:11:02;;;;;;;;;18.67;15.67;;;;;;;;4951923;28;46058;-77
2023/05/17 03:13:27;;;;;;;;;11.67;11.33;;;;;;;;4939597;28;45910;-78
2023/05/17 03:15:53;;;;;;;;;15.33;11.33;;;;;;;;4952051;28;45810;-77
2023/05/17 03:18:18;;;;;;;;;14.67;13.00;;;;;;;;4963807;28;45926;-77
2023/05/17 03:20:43;;;;;;;;;14.00;14.00;;;;;;;;4952516;28;46342;-77
2023/05/17 03:23:09;;;;;;;;;16.67;14.67;;;;;;;;4949930;28;46059;-78
2023/05/17 03:25:34;;;;;;;;;17.00;12.33;;;;;;;;4948976;28;46005;-78
2023/05/17 03:27:59;;;;;;;;;14.67;13.67;;;;;;;;4949912;28;45779;-76
2023/05/17 03:30:24;;;;;;;;;22.33;16.67;;;;;;;;4942461;28;45471;-77
2023/05/17 03:32:51;;;;;;;;;16.00;13.33;;;;;;;;4948932;28;46019;-77
2023/05/17 03:35:16;;;;;;;;;15.67;13.33;;;;;;;;4951753;28;45770;-79
2023/05/17 03:37:42;;;;;;;;;21.00;18.00;;;;;;;;4952118;28;45450;-78
2023/05/17 03:40:07;;;;;;;;;17.33;16.33;;;;;;;;4952328;28;45519;-78
2023/05/17 03:42:32;;;;;;;;;19.00;17.67;;;;;;;;4953747;28;45575;-76
2023/05/17 03:44:58;;;;;;;;;21.00;16.00;;;;;;;;4955509;28;45569;-78
2023/05/17 03:47:24;;;;;;;;;20.67;16.00;;;;;;;;4947042;28;45773;-76
2023/05/17 03:49:49;;;;;;;;;20.00;15.67;;;;;;;;4949430;28;46237;-78
2023/05/17 03:52:14;;;;;;;;;17.00;14.67;;;;;;;;4941030;28;45758;-77
2023/05/17 03:54:40;;;;;;;;;18.00;13.67;;;;;;;;4950415;28;45372;-76
2023/05/17 03:57:05;;;;;;;;;18.67;14.67;;;;;;;;4947155;28;47102;-77
2023/05/17 03:59:30;;;;;;;;;22.00;15.67;;;;;;;;4950668;28;45984;-76
2023/05/17 04:01:55;;;;;;;;;18.67;17.67;;;;;;;;4949634;28;45896;-78
2023/05/17 04:04:21;;;;;;;;;19.67;17.00;;;;;;;;4951329;28;45811;-77
2023/05/17 04:06:46;;;;;;;;;19.00;16.67;;;;;;;;4957801;28;45647;-77
2023/05/17 04:09:14;;;;;;;;;23.67;18.67;;;;;;;;4950927;28;46176;-80
2023/05/17 04:11:40;;;;;;;;;17.67;14.67;;;;;;;;4950882;28;45777;-79
2023/05/17 04:14:05;;;;;;;;;16.67;16.00;;;;;;;;4957010;28;45520;-79
2023/05/17 04:16:30;;;;;;;;;27.67;17.33;;;;;;;;4953673;28;45449;-77
2023/05/17 04:18:58;;;;;;;;;21.67;17.67;;;;;;;;4962722;28;46516;-78
2023/05/17 04:21:23;;;;;;;;;24.67;18.00;;;;;;;;4953115;28;45785;-79
2023/05/17 04:23:50;;;;;;;;;24.67;19.00;;;;;;;;4951415;28;45443;-77
2023/05/17 04:26:15;;;;;;;;;26.33;22.67;;;;;;;;4950925;28;45579;-77
2023/05/17 04:28:41;;;;;;;;;22.33;19.67;;;;;;;;4954039;28;46426;-78
2023/05/17 04:31:07;;;;;;;;;21.33;21.33;;;;;;;;4946791;28;45555;-72
2023/05/17 04:33:32;;;;;;;;;22.00;18.67;;;;;;;;4952756;28;45373;-72
2023/05/17 04:35:57;;;;;;;;;18.33;16.00;;;;;;;;4951388;28;45725;-73
2023/05/17 04:38:23;;;;;;;;;20.67;18.33;;;;;;;;4952263;28;45917;-78
2023/05/17 04:40:48;;;;;;;;;23.00;19.67;;;;;;;;4956209;28;45444;-77
2023/05/17 04:43:13;;;;;;;;;20.67;20.33;;;;;;;;4957842;28;45412;-79
2023/05/17 04:45:38;;;;;;;;;22.00;21.00;;;;;;;;4958304;28;45807;-78
2023/05/17 04:48:04;;;;;;;;;25.00;22.67;;;;;;;;4949863;28;46296;-78
2023/05/17 04:50:29;;;;;;;;;26.33;19.00;;;;;;;;4955875;28;45467;-79
2023/05/17 04:52:54;;;;;;;;;21.33;16.67;;;;;;;;4956476;28;45409;-79
2023/05/17 04:55:20;;;;;;;;;17.33;16.67;;;;;;;;4958061;28;45435;-79
2023/05/17 04:57:45;;;;;;;;;20.67;19.33;;;;;;;;4956837;28;47021;-79
2023/05/17 05:00:11;;;;;;;;;18.33;17.00;;;;;;;;4957502;28;46546;-80
2023/05/17 05:02:36;;;;;;;;;22.00;17.67;;;;;;;;4967508;28;45745;-78
2023/05/17 05:05:03;;;;;;;;;22.00;18.67;;;;;;;;4957522;28;45628;-78
2023/05/17 05:07:29;;;;;;;;;25.00;19.33;;;;;;;;4957783;28;45580;-80
2023/05/17 05:09:54;;;;;;;;;20.33;17.00;;;;;;;;4972477;28;45507;-79
2023/05/17 05:12:19;;;;;;;;;24.00;17.67;;;;;;;;4973508;28;44822;-79
2023/05/17 05:14:44;;;;;;;;;17.00;8.67;;;;;;;;4963226;28;45615;-78
2023/05/17 05:17:10;;;;;;;;;17.67;15.00;;;;;;;;4969666;28;47335;-81
2023/05/17 05:19:35;;;;;;;;;18.33;16.00;;;;;;;;4959330;28;45058;-81
2023/05/17 05:22:00;;;;;;;;;12.33;12.33;;;;;;;;4968204;28;45412;-80
2023/05/17 05:24:25;;;;;;;;;18.33;16.67;;;;;;;;4969292;28;45175;-80
2023/05/17 05:26:51;;;;;;;;;20.67;17.00;;;;;;;;4958485;28;46152;-80
2023/05/17 05:29:16;;;;;;;;;22.33;16.00;;;;;;;;4960081;28;45713;-81
2023/05/17 05:31:42;;;;;;;;;17.33;15.00;;;;;;;;4963154;28;45424;-79
2023/05/17 05:34:07;;;;;;;;;17.00;16.33;;;;;;;;4965791;28;45358;-78
2023/05/17 05:36:33;;;;;;;;;20.67;14.33;;;;;;;;4961502;28;45696;-80
2023/05/17 05:38:58;;;;;;;;;15.33;13.33;;;;;;;;4956767;28;45442;-80
2023/05/17 05:41:23;;;;;;;;;14.33;14.33;;;;;;;;4950855;28;45797;-81
2023/05/17 05:43:49;;;;;;;;;18.00;14.33;;;;;;;;4955339;28;45868;-80
2023/05/17 05:46:14;;;;;;;;;12.33;12.00;;;;;;;;4951246;28;46835;-79
2023/05/17 05:48:40;;;;;;;;;15.00;12.33;;;;;;;;4948710;28;45850;-80
2023/05/17 05:51:06;;;;;;;;;18.67;15.33;;;;;;;;4947210;28;45946;-79
2023/05/17 05:53:31;;;;;;;;;18.67;15.00;;;;;;;;4945051;28;45743;-82
2023/05/17 05:55:56;;;;;;;;;14.00;12.67;;;;;;;;4953897;28;46577;-81
2023/05/17 05:58:22;;;;;;;;;18.33;15.00;;;;;;;;4965447;28;45807;-80
2023/05/17 06:00:47;;;;;;;;;16.33;15.00;;;;;;;;4959765;28;45803;-81
2023/05/17 06:03:13;;;;;;;;;23.33;18.00;;;;;;;;4957274;28;45746;-82
2023/05/17 06:05:39;;;;;;;;;18.00;15.33;;;;;;;;4953524;28;46960;-80
2023/05/17 06:08:04;;;;;;;;;16.00;14.00;;;;;;;;4953751;28;45457;-80
2023/05/17 06:10:29;;;;;;;;;24.33;17.33;;;;;;;;4954297;28;45346;-80
2023/05/17 06:12:55;;;;;;;;;20.67;16.00;;;;;;;;4949737;28;45762;-78
2023/05/17 06:15:20;;;;;;;;;17.33;13.00;;;;;;;;4947016;28;46061;-80
2023/05/17 06:17:45;;;;;;;;;14.67;14.00;;;;;;;;4940228;28;45476;-78
2023/05/17 06:20:10;;;;;;;;;15.00;14.00;;;;;;;;4946645;28;45424;-81
2023/05/17 06:22:36;;;;;;;;;13.33;13.33;;;;;;;;4944824;28;47086;-80
2023/05/17 06:25:01;;;;;;;;;22.33;18.00;;;;;;;;4942234;28;46912;-86
2023/05/17 06:27:26;;;;;;;;;17.33;12.00;;;;;;;;4943755;28;45915;-80
2023/05/17 06:29:52;;;;;;;;;13.00;11.33;;;;;;;;4948488;28;45705;-80
2023/05/17 06:32:17;;;;;;;;;13.33;12.33;;;;;;;;4937689;28;45623;-79
2023/05/17 06:34:43;;;;;;;;;7.33;7.33;;;;;;;;4944993;28;46877;-79
2023/05/17 06:37:08;;;;;;;;;11.00;7.67;;;;;;;;4947919;28;46465;-78
2023/05/17 06:39:33;;;;;;;;;11.00;10.75;;;;;;;;4947627;28;45806;-80
2023/05/17 06:41:58;;;;;;;;;12.67;11.33;;;;;;;;4948202;28;46042;-80
2023/05/17 06:44:24;;;;;;;;;9.33;9.00;;;;;;;;4946136;28;46332;-79
2023/05/17 06:46:49;;;;;;;;;16.33;12.33;;;;;;;;4941706;28;45706;-78
2023/05/17 06:49:14;;;;;;;;;12.00;10.00;;;;;;;;4946449;28;45419;-80
2023/05/17 06:51:39;;;;;;;;;12.67;6.67;;;;;;;;4951117;28;45752;-79
2023/05/17 06:54:05;;;;;;;;;11.67;11.33;;;;;;;;4949154;28;46894;-80
2023/05/17 06:56:30;;;;;;;;;10.67;10.67;;;;;;;;4942052;28;45752;-79
2023/05/17 06:58:55;;;;;;;;;7.33;6.67;;;;;;;;4943154;28;45404;-79
2023/05/17 07:01:21;;;;;;;;;12.67;9.33;;;;;;;;4948524;28;45525;-80
2023/05/17 07:03:46;;;;;;;;;14.00;11.33;;;;;;;;4942700;28;46499;-80
2023/05/17 07:06:11;;;;;;;;;18.00;13.00;;;;;;;;4948866;28;45847;-78
2023/05/17 07:08:37;;;;;;;;;15.33;9.67;;;;;;;;4949175;28;45738;-80
2023/05/17 07:11:03;;;;;;;;;11.67;10.00;;;;;;;;4961709;28;45484;-80
2023/05/17 07:13:28;;;;;;;;;12.00;9.33;;;;;;;;4950529;28;45423;-81
2023/05/17 07:15:54;;;;;;;;;8.50;8.50;;;;;;;;4948386;28;45827;-80
2023/05/17 07:18:19;;;;;;;;;8.67;7.67;;;;;;;;4950579;28;46020;-81
2023/05/17 07:20:44;;;;;;;;;6.00;4.00;;;;;;;;4953028;28;45890;-80
2023/05/17 07:23:10;;;;;;;;;9.50;8.00;;;;;;;;4942076;28;46956;-81
2023/05/17 07:25:37;;;;;;;;;7.50;7.25;;;;;;;;4951261;28;45776;-81
2023/05/17 07:28:03;;;;;;;;;10.67;9.33;;;;;;;;4948592;28;45793;-80
2023/05/17 07:30:28;;;;;;;;;8.33;7.00;;;;;;;;4945035;28;46841;-80
2023/05/17 07:32:53;;;;;;;;;10.33;8.33;;;;;;;;4948150;28;46475;-79
2023/05/17 07:35:19;;;;;;;;;9.67;9.00;;;;;;;;4949976;28;45561;-79
2023/05/17 07:37:44;;;;;;;;;9.33;7.67;;;;;;;;4950529;28;45683;-80
2023/05/17 07:40:10;;;;;;;;;10.75;7.00;;;;;;;;4948288;28;46378;-80
2023/05/17 07:42:35;;;;;;;;;10.00;9.00;;;;;;;;4959184;28;45928;-80
2023/05/17 07:45:01;;;;;;;;;9.25;6.75;;;;;;;;4949317;28;45439;-80
2023/05/17 07:47:26;;;;;;;;;8.00;4.33;;;;;;;;4959772;28;46155;-79
2023/05/17 07:49:51;;;;;;;;;12.75;9.75;;;;;;;;4946564;28;45897;-78
2023/05/17 07:52:17;;;;;;;;;13.50;11.50;;;;;;;;4942355;28;46911;-80
2023/05/17 07:54:42;;;;;;;;;8.25;8.00;;;;;;;;4939278;28;45738;-79
2023/05/17 07:57:07;;;;;;;;;8.50;7.00;;;;;;;;4940846;28;45830;-80
2023/05/17 07:59:33;;;;;;;;;10.00;7.75;;;;;;;;4943686;28;45857;-79
2023/05/17 08:01:58;;;;;;;;;12.00;8.00;;;;;;;;4943889;28;46173;-79
2023/05/17 08:04:23;;;;;;;;;9.25;6.25;;;;;;;;4936848;28;47265;-80
2023/05/17 08:06:48;;;;;;;;;9.75;7.25;;;;;;;;4946713;28;45823;-79
2023/05/17 08:09:18;;;;;;;;;9.00;8.00;;;;;;;;4946280;28;45776;-83
2023/05/17 08:11:46;;;;;;;;;8.25;7.75;;;;;;;;4945773;28;46064;-81
2023/05/17 08:14:13;;;;;;;;;7.25;7.25;;;;;;;;4951543;28;45744;-80
2023/05/17 08:16:38;;;;;;;;;7.25;6.00;;;;;;;;4938680;28;45979;-80
2023/05/17 08:19:04;;;;;;;;;8.50;7.25;;;;;;;;4946238;28;45876;-79
2023/05/17 08:21:29;;;;;;;;;10.25;7.75;;;;;;;;4935271;28;45853;-80
2023/05/17 08:23:54;;;;;;;;;7.25;7.25;;;;;;;;4945608;28;46110;-81
2023/05/17 08:26:26;;;;;;;;;7.25;5.00;;;;;;;;4934608;28;45606;-84
2023/05/17 08:28:52;;;;;;;;;6.25;5.75;;;;;;;;4944741;28;45683;-81
2023/05/17 08:31:17;;;;;;;;;18.67;12.67;;;;;;;;4939312;28;46898;-81
2023/05/17 08:33:43;;;;;;;;;10.75;7.75;;;;;;;;4939034;28;45716;-79
2023/05/17 08:36:08;;;;;;;;;5.00;5.00;;;;;;;;4945567;28;45631;-80
2023/05/17 08:38:34;;;;;;;;;5.25;5.25;;;;;;;;4941761;28;45768;-81
2023/05/17 08:41:00;;;;;;;;;10.00;5.25;;;;;;;;4945043;28;46328;-81
2023/05/17 08:43:27;;;;;;;;;7.75;6.50;;;;;;;;4946415;28;45911;-82
2023/05/17 08:45:53;;;;;;;;;14.25;7.00;;;;;;;;4940046;28;45514;-80
2023/05/17 08:48:21;;;;;;;;;9.50;5.75;;;;;;;;4939794;28;45506;-83
2023/05/17 08:50:49;;;;;;;;;7.00;6.00;;;;;;;;4943600;28;47194;-83
2023/05/17 08:53:15;;;;;;;;;8.00;7.25;;;;;;;;4946437;28;45932;-80
2023/05/17 08:55:43;;;;;;;;;5.75;4.75;;;;;;;;4945752;28;45506;-80
2023/05/17 08:58:09;;;;;;;;;8.00;6.50;;;;;;;;4943032;28;45715;-81
2023/05/17 09:00:35;;;;;;;;;7.75;5.00;;;;;;;;4938130;28;47227;-81
2023/05/17 09:03:00;;;;;;;;;4.25;3.00;;;;;;;;4940500;28;45721;-82
2023/05/17 09:05:26;;;;;;;;;7.00;5.75;;;;;;;;4948358;28;45667;-82
2023/05/17 09:07:52;;;;;;;;;7.50;6.50;;;;;;;;4940762;28;45457;-80
2023/05/17 09:10:18;;;;;;;;;7.00;6.25;;;;;;;;4945459;28;45679;-82
2023/05/17 09:12:43;;;;;;;;;6.00;6.00;;;;;;;;4964968;28;45755;-82
2023/05/17 09:15:16;;;;;;;;;7.00;6.00;;;;;;;;4951159;28;45892;-81
2023/05/17 09:17:42;;;;;;;;;1.00;1.00;;;;;;;;4945285;28;45936;-82
2023/05/17 09:20:07;;;;;;;;;9.00;4.50;;;;;;;;4957370;28;47533;-81
2023/05/17 09:22:34;;;;;;;;;9.50;6.25;;;;;;;;4952211;28;45503;-80
2023/05/17 09:25:03;;;;;;;;;5.00;5.00;;;;;;;;4950590;28;45546;-81
2023/05/17 09:27:29;;;;;;;;;6.00;3.75;;;;;;;;4953321;28;45777;-80
2023/05/17 09:29:54;;;;;;;;;2.75;2.50;;;;;;;;4953828;28;45958;-80
2023/05/17 09:32:20;;;;;;;;;2.75;2.00;;;;;;;;4940879;28;45851;-82
2023/05/17 09:34:49;;;;;;;;;6.25;5.25;;;;;;;;4945613;28;45845;-79
2023/05/17 09:37:15;;;;;;;;;7.75;6.00;;;;;;;;4950799;28;45774;-80
2023/05/17 09:39:41;;;;;;;;;5.00;5.00;;;;;;;;4952755;28;46023;-79
2023/05/17 09:42:06;;;;;;;;;5.00;4.00;;;;;;;;4952156;28;45730;-81
2023/05/17 09:44:43;;;;;;;;;5.50;4.00;;;;;;;;4953406;28;45869;-79
2023/05/17 09:47:09;;;;;;;;;5.25;5.25;;;;;;;;4943914;28;45004;-81
2023/05/17 09:49:34;;;;;;;;;4.25;4.00;;;;;;;;4953232;28;46315;-81
2023/05/17 09:52:06;;;;;;;;;4.00;3.50;;;;;;;;4956384;28;45892;-80
2023/05/17 09:54:36;;;;;;;;;3.00;3.00;;;;;;;;4955327;28;45789;-80
2023/05/17 09:57:06;;;;;;;;;7.00;3.75;;;;;;;;4956224;28;45449;-80
2023/05/17 09:59:32;;;;;;;;;7.00;4.00;;;;;;;;4966762;28;46582;-85
2023/05/17 10:01:58;;;;;;;;;3.25;3.00;;;;;;;;4961763;28;45790;-82
2023/05/17 10:04:27;;;;;;;;;9.00;7.75;;;;;;;;4957781;28;45691;-80
2023/05/17 10:06:52;;;;;;;;;4.25;4.00;;;;;;;;4955576;28;45551;-83
2023/05/17 10:09:20;;;;;;;;;4.50;3.25;;;;;;;;4962658;28;46212;-82
2023/05/17 10:11:46;;;;;;;;;5.25;3.00;;;;;;;;4960469;28;46056;-82
2023/05/17 10:14:14;;;;;;;;;9.75;6.25;;;;;;;;4954249;28;45727;-81
2023/05/17 10:16:40;;;;;;;;;6.75;4.00;;;;;;;;4947387;28;45879;-80
2023/05/17 10:19:06;;;;;;;;;5.50;3.50;;;;;;;;4935345;28;47187;-81
2023/05/17 10:21:32;;;;;;;;;3.50;1.00;;;;;;;;4945885;28;45871;-79
2023/05/17 10:23:58;;;;;;;;;3.75;3.75;;;;;;;;4939251;28;45668;-82
2023/05/17 10:26:24;;;;;;;;;7.50;4.75;;;;;;;;4954932;28;45878;-82
2023/05/17 10:28:52;;;;;;;;;3.50;3.25;;;;;;;;4955478;28;47088;-82
2023/05/17 10:31:18;;;;;;;;;3.00;3.00;;;;;;;;4946136;28;45587;-84
2023/05/17 10:33:45;;;;;;;;;3.00;3.00;;;;;;;;4956215;28;45645;-84
2023/05/17 10:36:13;;;;;;;;;41.00;34.00;;;;;;;;4951464;28;45429;-83
2023/05/17 10:38:38;;;;;;;;;6.00;4.25;;;;;;;;4945769;28;46959;-83
2023/05/17 10:41:03;;;;;;;;;3.00;2.50;;;;;;;;4950979;28;45950;-85
2023/05/17 10:43:30;;;;;;;;;3.75;2.75;;;;;;;;4954619;28;45822;-83
2023/05/17 10:45:56;;;;;;;;;4.00;3.00;;;;;;;;4953818;28;46173;-83
2023/05/17 10:48:21;;;;;;;;;4.25;2.25;;;;;;;;4957550;28;47258;-85
2023/05/17 10:50:47;;;;;;;;;2.00;2.00;;;;;;;;4947745;28;45709;-83
2023/05/17 10:53:12;;;;;;;;;4.25;3.00;;;;;;;;4952961;28;45927;-82
2023/05/17 10:55:41;;;;;;;;;2.00;1.00;;;;;;;;4955237;28;45983;-82
2023/05/17 10:58:11;;;;;;;;;2.25;2.25;;;;;;;;4952596;28;47119;-84
2023/05/17 11:00:40;;;;;;;;;5.00;2.50;;;;;;;;4955463;28;45457;-86
2023/05/17 11:03:12;;;;;;;;;3.00;2.00;;;;;;;;4953407;28;45521;-82
2023/05/17 11:05:43;;;;;;;;;3.50;2.75;;;;;;;;4947353;28;47294;-83
2023/05/17 11:08:13;;;;;;;;;2.00;2.00;;;;;;;;4958187;28;45647;-84
2023/05/17 11:10:58;;;;;;;;;2.00;1.00;;;;;;;;4956049;28;45454;-83
2023/05/17 11:13:27;;;;;;;;;4.00;3.00;;;;;;;;4955041;28;45454;-82
2023/05/17 11:16:02;;;;;;;;;3.50;2.00;;;;;;;;4957319;28;46307;-83
2023/05/17 11:18:44;;;;;;;;;1.00;1.00;;;;;;;;4951910;28;45981;-83
2023/05/17 11:21:12;;;;;;;;;3.00;2.25;;;;;;;;4949188;28;45733;-81
2023/05/17 11:23:38;;;;;;;;;2.25;2.00;;;;;;;;4944775;28;46530;-82
2023/05/17 11:26:17;;;;;;;;;4.00;3.00;;;;;;;;4944876;28;45758;-81
2023/05/17 11:28:42;;;;;;;;;3.67;2.67;;;;;;;;4935582;28;46684;-80
2023/05/17 11:31:08;;;;;;;;;4.67;3.00;;;;;;;;4943250;28;45750;-80
2023/05/17 11:33:43;;;;;;;;;6.33;3.00;;;;;;;;4947895;28;46015;-81
2023/05/17 11:36:18;;;;;;;;;1.00;1.00;;;;;;;;4943187;28;45814;-82
2023/05/17 11:38:43;;;;;;;;;5.33;5.00;;;;;;;;4950393;28;45589;-82
2023/05/17 11:41:20;;;;;;;;;4.67;3.33;;;;;;;;4943630;28;46094;-82
2023/05/17 11:43:47;;;;;;;;;4.00;3.00;;;;;;;;4949149;28;45855;-82
2023/05/17 11:46:17;;;;;;;;;3.33;2.33;;;;;;;;4946537;28;45927;-81
2023/05/17 11:48:44;;;;;;;;;2.00;2.00;;;;;;;;4949495;28;46148;-81
2023/05/17 11:51:12;;;;;;;;;4.33;3.33;;;;;;;;4956711;28;45791;-81
2023/05/17 11:53:38;;;;;;;;;5.00;3.00;;;;;;;;4954577;28;45441;-77
2023/05/17 11:56:04;;;;;;;;;2.33;1.00;;;;;;;;4949329;28;45470;-78
2023/05/17 11:58:30;;;;;;;;;3.00;3.00;;;;;;;;4941385;28;46646;-79
2023/05/17 12:00:57;;;;;;;;;3.67;2.00;;;;;;;;4944823;28;45768;-79
2023/05/17 12:03:24;;;;;;;;;3.67;3.67;;;;;;;;4933357;28;45538;-80
2023/05/17 12:05:50;;;;;;;;;2.67;2.33;;;;;;;;4950334;28;46017;-79
2023/05/17 12:08:19;;;;;;;;;3.67;3.67;;;;;;;;4950442;28;46737;-78
2023/05/17 12:10:51;;;;;;;;;4.00;3.00;;;;;;;;4949551;28;45738;-79
2023/05/17 12:13:16;;;;;;;;;5.33;4.00;;;;;;;;4943812;28;45780;-79
2023/05/17 12:15:50;;;;;;;;;3.00;1.33;;;;;;;;4953205;28;45853;-79
2023/05/17 12:18:15;;;;;;;;;4.00;2.67;;;;;;;;4950380;28;46801;-75
2023/05/17 12:20:56;;;;;;;;;2.67;2.67;;;;;;;;4948492;28;46091;-74
2023/05/17 12:23:28;;;;;;;;;3.00;2.00;;;;;;;;4942886;28;45801;-76
2023/05/17 12:26:09;;;;;;;;;3.00;3.00;;;;;;;;4953215;28;46643;-75
2023/05/17 12:28:36;;;;;;;;;4.00;3.00;;;;;;;;4947562;28;48441;-74
2023/05/17 12:31:03;;;;;;;;;3.33;2.00;;;;;;;;4949135;28;45924;-75
2023/05/17 12:33:29;;;;;;;;;2.67;2.00;;;;;;;;4949025;28;45680;-76
2023/05/17 12:35:55;;;;;;;;;4.00;3.00;;;;;;;;4952834;28;45704;-75
2023/05/17 12:38:20;;;;;;;;;1.67;1.00;;;;;;;;4942882;28;47415;-75
2023/05/17 12:40:46;;;;;;;;;3.33;3.00;;;;;;;;4951858;28;45664;-82
2023/05/17 12:43:11;;;;;;;;;5.00;3.00;;;;;;;;4953381;28;45409;-75
2023/05/17 12:45:36;;;;;;;;;7.33;3.33;;;;;;;;4952200;28;45593;-75
2023/05/17 12:48:01;;;;;;;;;3.00;2.67;;;;;;;;4951554;28;46341;-75
2023/05/17 12:50:30;;;;;;;;;4.00;3.33;;;;;;;;4952300;28;45654;-75
2023/05/17 12:52:55;;;;;;;;;1.67;1.00;;;;;;;;4950192;28;45923;-77
2023/05/17 12:55:21;;;;;;;;;8.33;3.67;;;;;;;;4950952;28;47143;-76
2023/05/17 12:57:50;;;;;;;;;2.00;2.00;;;;;;;;4952130;28;46593;-76
2023/05/17 13:00:17;;;;;;;;;3.00;3.00;;;;;;;;4952336;28;45863;-77
2023/05/17 13:02:42;;;;;;;;;3.00;3.00;;;;;;;;4951333;28;45762;-78
2023/05/17 13:05:15;;;;;;;;;6.33;2.67;;;;;;;;4951466;28;47440;-77
2023/05/17 13:07:40;;;;;;;;;2.33;2.00;;;;;;;;4952118;28;45516;-76
2023/05/17 13:10:18;;;;;;;;;3.00;3.00;;;;;;;;4951242;28;45765;-77
2023/05/17 13:12:52;;;;;;;;;5.67;3.67;;;;;;;;4950562;28;45644;-75
2023/05/17 13:15:18;;;;;;;;;2.00;2.00;;;;;;;;4953413;28;45855;-77
2023/05/17 13:17:48;;;;;;;;;4.33;4.00;;;;;;;;4948723;28;45933;-78
2023/05/17 13:20:14;;;;;;;;;2.67;1.67;;;;;;;;4947002;28;45534;-76
2023/05/17 13:22:40;;;;;;;;;3.67;2.00;;;;;;;;4950126;28;45484;-77
2023/05/17 13:25:05;;;;;;;;;3.00;3.00;;;;;;;;4964136;28;45993;-80
2023/05/17 13:27:30;;;;;;;;;2.67;2.67;;;;;;;;4953520;28;47800;-82
2023/05/17 13:29:56;;;;;;;;;6.00;4.00;;;;;;;;4956041;28;45734;-82
2023/05/17 13:32:21;;;;;;;;;3.00;2.00;;;;;;;;4953289;28;45460;-85
2023/05/17 13:34:46;;;;;;;;;3.00;2.00;;;;;;;;4950501;28;45907;-81
2023/05/17 13:37:12;;;;;;;;;3.67;1.67;;;;;;;;4949844;28;47030;-82
2023/05/17 13:39:37;;;;;;;;;4.33;1.67;;;;;;;;4949448;28;45935;-81
2023/05/17 13:42:03;;;;;;;;;1.00;0.00;;;;;;;;4949805;28;45480;-83
2023/05/17 13:44:28;;;;;;;;;2.67;2.67;;;;;;;;4950922;28;46689;-81
2023/05/17 13:46:53;;;;;;;;;2.00;2.00;;;;;;;;4944980;28;46117;-80
2023/05/17 13:49:19;;;;;;;;;2.00;1.00;;;;;;;;4950799;28;45912;-79
2023/05/17 13:51:44;;;;;;;;;2.00;2.00;;;;;;;;4939587;28;45610;-78
2023/05/17 13:54:10;;;;;;;;;1.00;1.00;;;;;;;;4942099;28;45870;-78
2023/05/17 13:56:37;;;;;;;;;1.00;1.00;;;;;;;;4939250;28;45523;-77
2023/05/17 13:59:02;;;;;;;;;1.00;1.00;;;;;;;;4940107;28;46066;-78
2023/05/17 14:01:28;;;;;;;;;3.00;2.33;;;;;;;;4939502;28;45777;-75
2023/05/17 14:03:54;;;;;;;;;6.67;3.33;;;;;;;;4945349;28;47438;-75
2023/05/17 14:06:19;;;;;;;;;1.00;1.00;;;;;;;;4952468;28;45980;-75
2023/05/17 14:08:45;;;;;;;;;2.00;2.00;;;;;;;;4945455;28;45785;-81
2023/05/17 14:11:10;;;;;;;;;2.00;2.00;;;;;;;;4942721;28;45940;-80
2023/05/17 14:13:36;;;;;;;;;3.00;3.00;;;;;;;;4950444;28;45500;-80
2023/05/17 14:16:01;;;;;;;;;3.00;2.00;;;;;;;;4950494;28;45605;-81
2023/05/17 14:18:26;;;;;;;;;5.00;2.00;;;;;;;;4949184;28;45751;-75
2023/05/17 14:20:52;;;;;;;;;2.00;2.00;;;;;;;;4949220;28;45944;-76
2023/05/17 14:23:17;;;;;;;;;6.67;2.67;;;;;;;;4950051;28;45446;-74
2023/05/17 14:25:42;;;;;;;;;1.67;1.00;;;;;;;;4958546;28;45524;-73
2023/05/17 14:28:08;;;;;;;;;2.33;2.00;;;;;;;;4945230;28;45822;-74